sensor_id;sensor_type;location;lat;lon;timestamp;temperature;humidity
11320;DHT22;5715;48.234;14.320;2023-08-24T00:00:14;20.40;99.90
11320;DHT22;5715;48.234;14.320;2023-08-24T00:03:02;20.40;99.90
11320;DHT22;5715;48.234;14.320;2023-08-24T00:05:50;20.40;99.90
11320;DHT22;5715;48.234;14.320;2023-08-24T00:08:39;20.40;99.90
11320;DHT22;5715;48.234;14.320;2023-08-24T00:11:26;20.40;99.90
11320;DHT22;5715;48.234;14.320;2023-08-24T00:14:14;20.40;99.90
11320;DHT22;5715;48.234;14.320;2023-08-24T00:17:01;20.40;99.90
11320;DHT22;5715;48.234;14.320;2023-08-24T00:19:49;20.40;99.90
11320;DHT22;5715;48.234;14.320;2023-08-24T00:22:38;20.40;99.90
11320;DHT22;5715;48.234;14.320;2023-08-24T00:25:26;20.40;99.90
11320;DHT22;5715;48.234;14.320;2023-08-24T00:28:14;20.30;99.90
11320;DHT22;5715;48.234;14.320;2023-08-24T00:31:02;20.30;99.90
11320;DHT22;5715;48.234;14.320;2023-08-24T00:33:49;20.20;99.90
11320;DHT22;5715;48.234;14.320;2023-08-24T00:36:42;20.20;99.90
11320;DHT22;5715;48.234;14.320;2023-08-24T00:39:29;20.20;99.90
11320;DHT22;5715;48.234;14.320;2023-08-24T00:42:17;20.20;99.90
11320;DHT22;5715;48.234;14.320;2023-08-24T00:45:05;20.20;99.90
11320;DHT22;5715;48.234;14.320;2023-08-24T00:47:54;20.10;99.90
11320;DHT22;5715;48.234;14.320;2023-08-24T00:50:42;20.20;99.90
11320;DHT22;5715;48.234;14.320;2023-08-24T00:53:30;20.10;99.90
11320;DHT22;5715;48.234;14.320;2023-08-24T00:56:18;20.00;99.90
11320;DHT22;5715;48.234;14.320;2023-08-24T00:59:11;20.00;99.90
11320;DHT22;5715;48.234;14.320;2023-08-24T01:01:59;20.00;99.90
11320;DHT22;5715;48.234;14.320;2023-08-24T01:04:47;20.00;99.90
11320;DHT22;5715;48.234;14.320;2023-08-24T01:07:38;19.90;99.90
11320;DHT22;5715;48.234;14.320;2023-08-24T01:10:38;19.90;99.90
11320;DHT22;5715;48.234;14.320;2023-08-24T01:13:39;19.90;99.90
11320;DHT22;5715;48.234;14.320;2023-08-24T01:16:37;19.80;99.90
11320;DHT22;5715;48.234;14.320;2023-08-24T01:19:44;19.80;99.90
11320;DHT22;5715;48.234;14.320;2023-08-24T01:25:53;19.80;99.90
11320;DHT22;5715;48.234;14.320;2023-08-24T01:29:10;19.70;99.90
11320;DHT22;5715;48.234;14.320;2023-08-24T01:31:58;19.70;99.90
11320;DHT22;5715;48.234;14.320;2023-08-24T01:34:46;19.70;99.90
11320;DHT22;5715;48.234;14.320;2023-08-24T01:37:34;19.60;99.90
11320;DHT22;5715;48.234;14.320;2023-08-24T01:43:52;19.60;99.90
11320;DHT22;5715;48.234;14.320;2023-08-24T01:46:42;19.50;99.90
11320;DHT22;5715;48.234;14.320;2023-08-24T01:49:33;19.60;99.90
11320;DHT22;5715;48.234;14.320;2023-08-24T01:52:21;19.50;99.90
11320;DHT22;5715;48.234;14.320;2023-08-24T01:55:11;19.40;99.90
11320;DHT22;5715;48.234;14.320;2023-08-24T01:57:59;19.50;99.90
11320;DHT22;5715;48.234;14.320;2023-08-24T02:00:47;19.40;99.90
11320;DHT22;5715;48.234;14.320;2023-08-24T02:03:35;19.40;99.90
11320;DHT22;5715;48.234;14.320;2023-08-24T02:06:23;19.50;99.90
11320;DHT22;5715;48.234;14.320;2023-08-24T02:09:11;19.60;99.90
11320;DHT22;5715;48.234;14.320;2023-08-24T02:11:58;19.50;99.90
11320;DHT22;5715;48.234;14.320;2023-08-24T02:14:46;19.50;99.90
11320;DHT22;5715;48.234;14.320;2023-08-24T02:17:33;19.40;99.90
11320;DHT22;5715;48.234;14.320;2023-08-24T02:20:21;19.40;99.90
11320;DHT22;5715;48.234;14.320;2023-08-24T02:23:09;19.30;99.90
11320;DHT22;5715;48.234;14.320;2023-08-24T02:25:56;19.30;99.90
11320;DHT22;5715;48.234;14.320;2023-08-24T02:28:44;19.30;99.90
11320;DHT22;5715;48.234;14.320;2023-08-24T02:31:32;19.20;99.90
11320;DHT22;5715;48.234;14.320;2023-08-24T02:34:19;19.20;99.90
11320;DHT22;5715;48.234;14.320;2023-08-24T02:37:07;19.10;99.90
11320;DHT22;5715;48.234;14.320;2023-08-24T02:39:55;19.10;99.90
11320;DHT22;5715;48.234;14.320;2023-08-24T02:42:42;19.00;99.90
11320;DHT22;5715;48.234;14.320;2023-08-24T02:45:30;19.10;99.90
11320;DHT22;5715;48.234;14.320;2023-08-24T02:48:17;19.10;99.90
11320;DHT22;5715;48.234;14.320;2023-08-24T02:51:05;19.00;99.90
11320;DHT22;5715;48.234;14.320;2023-08-24T02:53:53;18.90;99.90
11320;DHT22;5715;48.234;14.320;2023-08-24T02:56:41;18.90;99.90
11320;DHT22;5715;48.234;14.320;2023-08-24T02:59:28;18.90;99.90
11320;DHT22;5715;48.234;14.320;2023-08-24T03:02:16;18.90;99.90
11320;DHT22;5715;48.234;14.320;2023-08-24T03:05:04;18.80;99.90
11320;DHT22;5715;48.234;14.320;2023-08-24T03:07:52;18.90;99.90
11320;DHT22;5715;48.234;14.320;2023-08-24T03:10:41;19.00;99.90
11320;DHT22;5715;48.234;14.320;2023-08-24T03:13:29;19.00;99.90
11320;DHT22;5715;48.234;14.320;2023-08-24T03:16:18;18.90;99.90
11320;DHT22;5715;48.234;14.320;2023-08-24T03:19:05;18.90;99.90
11320;DHT22;5715;48.234;14.320;2023-08-24T03:21:54;18.90;99.90
11320;DHT22;5715;48.234;14.320;2023-08-24T03:24:42;18.90;99.90
11320;DHT22;5715;48.234;14.320;2023-08-24T03:27:29;18.90;99.90
11320;DHT22;5715;48.234;14.320;2023-08-24T03:30:17;18.90;99.90
11320;DHT22;5715;48.234;14.320;2023-08-24T03:33:05;18.90;99.90
11320;DHT22;5715;48.234;14.320;2023-08-24T03:35:54;19.00;99.90
11320;DHT22;5715;48.234;14.320;2023-08-24T03:38:41;19.10;99.90
11320;DHT22;5715;48.234;14.320;2023-08-24T03:41:29;19.10;99.90
11320;DHT22;5715;48.234;14.320;2023-08-24T03:44:17;19.10;99.90
11320;DHT22;5715;48.234;14.320;2023-08-24T03:47:04;18.90;99.90
11320;DHT22;5715;48.234;14.320;2023-08-24T03:49:52;18.80;99.90
11320;DHT22;5715;48.234;14.320;2023-08-24T03:52:40;18.80;99.90
11320;DHT22;5715;48.234;14.320;2023-08-24T03:55:27;18.70;99.90
11320;DHT22;5715;48.234;14.320;2023-08-24T03:58:15;18.70;99.90
11320;DHT22;5715;48.234;14.320;2023-08-24T04:01:03;18.60;99.90
11320;DHT22;5715;48.234;14.320;2023-08-24T04:03:51;18.60;99.90
11320;DHT22;5715;48.234;14.320;2023-08-24T04:06:38;18.60;99.90
11320;DHT22;5715;48.234;14.320;2023-08-24T04:09:26;18.50;99.90
11320;DHT22;5715;48.234;14.320;2023-08-24T04:12:14;18.50;99.90
11320;DHT22;5715;48.234;14.320;2023-08-24T04:15:02;18.50;99.90
11320;DHT22;5715;48.234;14.320;2023-08-24T04:17:50;18.40;99.90
11320;DHT22;5715;48.234;14.320;2023-08-24T04:20:38;18.40;99.90
11320;DHT22;5715;48.234;14.320;2023-08-24T04:23:26;18.40;99.90
11320;DHT22;5715;48.234;14.320;2023-08-24T04:26:14;18.40;99.90
11320;DHT22;5715;48.234;14.320;2023-08-24T04:29:02;18.40;99.90
11320;DHT22;5715;48.234;14.320;2023-08-24T04:31:49;18.40;99.90
11320;DHT22;5715;48.234;14.320;2023-08-24T04:34:37;18.40;99.90
11320;DHT22;5715;48.234;14.320;2023-08-24T04:37:25;18.40;99.90
11320;DHT22;5715;48.234;14.320;2023-08-24T04:40:12;18.40;99.90
11320;DHT22;5715;48.234;14.320;2023-08-24T04:43:00;18.40;99.90
11320;DHT22;5715;48.234;14.320;2023-08-24T04:45:53;18.50;99.90
11320;DHT22;5715;48.234;14.320;2023-08-24T04:48:42;18.70;99.90
11320;DHT22;5715;48.234;14.320;2023-08-24T04:51:29;18.80;99.90
11320;DHT22;5715;48.234;14.320;2023-08-24T04:54:17;19.00;99.90
11320;DHT22;5715;48.234;14.320;2023-08-24T04:57:05;19.10;99.90
11320;DHT22;5715;48.234;14.320;2023-08-24T04:59:53;19.30;99.90
11320;DHT22;5715;48.234;14.320;2023-08-24T05:02:42;19.50;99.90
11320;DHT22;5715;48.234;14.320;2023-08-24T05:05:34;19.80;99.90
11320;DHT22;5715;48.234;14.320;2023-08-24T05:08:22;20.10;99.90
11320;DHT22;5715;48.234;14.320;2023-08-24T05:11:16;20.40;99.90
11320;DHT22;5715;48.234;14.320;2023-08-24T05:14:05;20.70;99.90
11320;DHT22;5715;48.234;14.320;2023-08-24T05:16:52;21.20;99.90
11320;DHT22;5715;48.234;14.320;2023-08-24T05:19:40;21.90;99.90
11320;DHT22;5715;48.234;14.320;2023-08-24T05:22:28;22.40;99.90
11320;DHT22;5715;48.234;14.320;2023-08-24T05:25:16;22.70;99.90
11320;DHT22;5715;48.234;14.320;2023-08-24T05:28:04;23.10;99.90
11320;DHT22;5715;48.234;14.320;2023-08-24T05:30:53;23.40;99.90
11320;DHT22;5715;48.234;14.320;2023-08-24T05:33:41;23.80;99.90
11320;DHT22;5715;48.234;14.320;2023-08-24T05:36:29;24.00;99.90
11320;DHT22;5715;48.234;14.320;2023-08-24T05:39:17;24.30;99.90
11320;DHT22;5715;48.234;14.320;2023-08-24T05:42:05;24.60;99.90
11320;DHT22;5715;48.234;14.320;2023-08-24T05:44:54;24.70;99.90
11320;DHT22;5715;48.234;14.320;2023-08-24T05:47:41;24.60;99.90
11320;DHT22;5715;48.234;14.320;2023-08-24T05:50:29;24.50;99.90
11320;DHT22;5715;48.234;14.320;2023-08-24T05:53:17;24.50;99.90
11320;DHT22;5715;48.234;14.320;2023-08-24T05:56:04;24.90;99.90
11320;DHT22;5715;48.234;14.320;2023-08-24T05:58:53;24.90;99.90
11320;DHT22;5715;48.234;14.320;2023-08-24T06:01:41;24.70;99.90
11320;DHT22;5715;48.234;14.320;2023-08-24T06:04:29;24.60;99.90
11320;DHT22;5715;48.234;14.320;2023-08-24T06:07:18;24.20;99.90
11320;DHT22;5715;48.234;14.320;2023-08-24T06:10:06;23.90;99.90
11320;DHT22;5715;48.234;14.320;2023-08-24T06:12:54;23.90;99.90
11320;DHT22;5715;48.234;14.320;2023-08-24T06:15:42;23.80;99.90
11320;DHT22;5715;48.234;14.320;2023-08-24T06:18:30;23.80;99.90
11320;DHT22;5715;48.234;14.320;2023-08-24T06:21:17;23.70;99.90
11320;DHT22;5715;48.234;14.320;2023-08-24T06:24:05;23.60;99.90
11320;DHT22;5715;48.234;14.320;2023-08-24T06:26:53;23.70;99.90
11320;DHT22;5715;48.234;14.320;2023-08-24T06:29:43;23.70;99.90
11320;DHT22;5715;48.234;14.320;2023-08-24T06:32:31;23.70;99.90
11320;DHT22;5715;48.234;14.320;2023-08-24T06:35:19;23.80;99.90
11320;DHT22;5715;48.234;14.320;2023-08-24T06:38:06;23.80;99.90
11320;DHT22;5715;48.234;14.320;2023-08-24T06:40:54;23.90;99.90
11320;DHT22;5715;48.234;14.320;2023-08-24T06:43:41;23.90;99.90
11320;DHT22;5715;48.234;14.320;2023-08-24T06:46:29;23.80;99.90
11320;DHT22;5715;48.234;14.320;2023-08-24T06:49:17;23.80;99.90
11320;DHT22;5715;48.234;14.320;2023-08-24T06:52:05;23.90;99.90
11320;DHT22;5715;48.234;14.320;2023-08-24T06:54:53;23.90;99.90
11320;DHT22;5715;48.234;14.320;2023-08-24T06:57:48;24.00;99.90
11320;DHT22;5715;48.234;14.320;2023-08-24T07:00:39;24.10;99.90
11320;DHT22;5715;48.234;14.320;2023-08-24T07:03:26;24.20;99.90
11320;DHT22;5715;48.234;14.320;2023-08-24T07:06:14;24.20;99.90
11320;DHT22;5715;48.234;14.320;2023-08-24T07:09:02;24.30;99.90
11320;DHT22;5715;48.234;14.320;2023-08-24T07:11:53;24.60;99.90
11320;DHT22;5715;48.234;14.320;2023-08-24T07:14:41;24.70;99.90
11320;DHT22;5715;48.234;14.320;2023-08-24T07:17:28;24.90;99.90
11320;DHT22;5715;48.234;14.320;2023-08-24T07:20:16;25.10;99.90
11320;DHT22;5715;48.234;14.320;2023-08-24T07:23:04;25.20;99.90
11320;DHT22;5715;48.234;14.320;2023-08-24T07:25:51;25.40;99.90
11320;DHT22;5715;48.234;14.320;2023-08-24T07:28:39;25.40;99.90
11320;DHT22;5715;48.234;14.320;2023-08-24T07:31:26;25.60;99.90
11320;DHT22;5715;48.234;14.320;2023-08-24T07:34:14;25.70;99.90
11320;DHT22;5715;48.234;14.320;2023-08-24T07:37:03;25.70;99.90
11320;DHT22;5715;48.234;14.320;2023-08-24T07:39:50;25.80;99.90
11320;DHT22;5715;48.234;14.320;2023-08-24T07:42:48;25.70;99.90
11320;DHT22;5715;48.234;14.320;2023-08-24T07:45:38;25.80;99.90
11320;DHT22;5715;48.234;14.320;2023-08-24T07:48:27;25.90;99.90
11320;DHT22;5715;48.234;14.320;2023-08-24T07:51:15;25.90;99.90
11320;DHT22;5715;48.234;14.320;2023-08-24T07:54:03;26.00;99.90
11320;DHT22;5715;48.234;14.320;2023-08-24T07:56:51;26.10;99.90
11320;DHT22;5715;48.234;14.320;2023-08-24T07:59:39;26.20;99.90
11320;DHT22;5715;48.234;14.320;2023-08-24T08:02:26;26.20;99.90
11320;DHT22;5715;48.234;14.320;2023-08-24T08:05:14;26.30;99.90
11320;DHT22;5715;48.234;14.320;2023-08-24T08:08:01;26.40;99.90
11320;DHT22;5715;48.234;14.320;2023-08-24T08:10:57;26.50;99.90
11320;DHT22;5715;48.234;14.320;2023-08-24T08:13:46;26.60;99.90
11320;DHT22;5715;48.234;14.320;2023-08-24T08:16:34;26.80;99.90
11320;DHT22;5715;48.234;14.320;2023-08-24T08:19:23;27.00;99.90
11320;DHT22;5715;48.234;14.320;2023-08-24T08:22:12;27.20;99.90
11320;DHT22;5715;48.234;14.320;2023-08-24T08:25:00;27.10;99.90
11320;DHT22;5715;48.234;14.320;2023-08-24T08:27:48;27.20;99.90
11320;DHT22;5715;48.234;14.320;2023-08-24T08:30:37;27.20;99.90
11320;DHT22;5715;48.234;14.320;2023-08-24T08:33:24;27.20;99.90
11320;DHT22;5715;48.234;14.320;2023-08-24T08:36:12;27.00;99.90
11320;DHT22;5715;48.234;14.320;2023-08-24T08:38:59;26.80;99.90
11320;DHT22;5715;48.234;14.320;2023-08-24T08:41:47;26.60;99.90
11320;DHT22;5715;48.234;14.320;2023-08-24T08:44:36;26.60;99.90
11320;DHT22;5715;48.234;14.320;2023-08-24T08:47:24;26.60;99.90
11320;DHT22;5715;48.234;14.320;2023-08-24T08:50:11;26.90;99.90
11320;DHT22;5715;48.234;14.320;2023-08-24T08:52:59;27.20;99.90
11320;DHT22;5715;48.234;14.320;2023-08-24T08:55:47;27.40;99.90
11320;DHT22;5715;48.234;14.320;2023-08-24T08:58:39;27.70;99.90
11320;DHT22;5715;48.234;14.320;2023-08-24T09:01:30;27.90;99.90
11320;DHT22;5715;48.234;14.320;2023-08-24T09:04:18;28.20;99.90
11320;DHT22;5715;48.234;14.320;2023-08-24T09:07:06;28.20;99.90
11320;DHT22;5715;48.234;14.320;2023-08-24T09:09:57;28.30;99.90
11320;DHT22;5715;48.234;14.320;2023-08-24T09:12:45;28.40;99.90
11320;DHT22;5715;48.234;14.320;2023-08-24T09:15:35;28.60;99.90
11320;DHT22;5715;48.234;14.320;2023-08-24T09:18:37;28.60;99.90
11320;DHT22;5715;48.234;14.320;2023-08-24T09:21:25;28.60;99.90
11320;DHT22;5715;48.234;14.320;2023-08-24T09:24:13;28.50;99.90
11320;DHT22;5715;48.234;14.320;2023-08-24T09:27:15;28.70;99.90
11320;DHT22;5715;48.234;14.320;2023-08-24T09:30:05;28.90;99.90
11320;DHT22;5715;48.234;14.320;2023-08-24T09:32:54;29.10;99.90
11320;DHT22;5715;48.234;14.320;2023-08-24T09:35:42;29.30;99.90
11320;DHT22;5715;48.234;14.320;2023-08-24T09:38:29;29.40;99.90
11320;DHT22;5715;48.234;14.320;2023-08-24T09:41:17;29.50;99.90
11320;DHT22;5715;48.234;14.320;2023-08-24T09:44:06;29.80;99.90
11320;DHT22;5715;48.234;14.320;2023-08-24T09:46:54;29.90;99.90
11320;DHT22;5715;48.234;14.320;2023-08-24T09:49:42;30.00;99.90
11320;DHT22;5715;48.234;14.320;2023-08-24T09:52:33;30.20;99.90
11320;DHT22;5715;48.234;14.320;2023-08-24T09:55:23;30.20;99.90
11320;DHT22;5715;48.234;14.320;2023-08-24T09:58:14;30.20;99.90
11320;DHT22;5715;48.234;14.320;2023-08-24T10:01:03;30.30;99.90
11320;DHT22;5715;48.234;14.320;2023-08-24T10:03:51;30.50;99.90
11320;DHT22;5715;48.234;14.320;2023-08-24T10:06:49;30.50;99.90
11320;DHT22;5715;48.234;14.320;2023-08-24T10:09:52;30.50;99.90
11320;DHT22;5715;48.234;14.320;2023-08-24T10:12:47;30.50;99.90
11320;DHT22;5715;48.234;14.320;2023-08-24T10:15:39;30.60;99.90
11320;DHT22;5715;48.234;14.320;2023-08-24T10:18:35;30.60;99.90
11320;DHT22;5715;48.234;14.320;2023-08-24T10:21:24;30.60;99.90
11320;DHT22;5715;48.234;14.320;2023-08-24T10:24:15;30.70;99.90
11320;DHT22;5715;48.234;14.320;2023-08-24T10:27:03;30.80;99.90
11320;DHT22;5715;48.234;14.320;2023-08-24T10:29:52;30.80;99.90
11320;DHT22;5715;48.234;14.320;2023-08-24T10:32:41;31.00;99.90
11320;DHT22;5715;48.234;14.320;2023-08-24T10:35:31;31.10;99.90
11320;DHT22;5715;48.234;14.320;2023-08-24T10:38:28;31.20;99.90
11320;DHT22;5715;48.234;14.320;2023-08-24T10:41:16;31.30;99.90
11320;DHT22;5715;48.234;14.320;2023-08-24T10:44:07;31.30;99.90
11320;DHT22;5715;48.234;14.320;2023-08-24T10:50:02;31.60;99.90
11320;DHT22;5715;48.234;14.320;2023-08-24T10:52:50;31.60;99.90
11320;DHT22;5715;48.234;14.320;2023-08-24T10:55:38;31.60;99.90
11320;DHT22;5715;48.234;14.320;2023-08-24T10:58:26;31.50;99.90
11320;DHT22;5715;48.234;14.320;2023-08-24T11:01:20;31.70;99.90
11320;DHT22;5715;48.234;14.320;2023-08-24T11:04:11;31.90;99.90
11320;DHT22;5715;48.234;14.320;2023-08-24T11:07:00;31.90;99.90
11320;DHT22;5715;48.234;14.320;2023-08-24T11:09:50;31.90;99.90
11320;DHT22;5715;48.234;14.320;2023-08-24T11:15:51;31.70;99.90
11320;DHT22;5715;48.234;14.320;2023-08-24T11:18:42;32.00;99.90
11320;DHT22;5715;48.234;14.320;2023-08-24T11:21:30;32.00;99.90
11320;DHT22;5715;48.234;14.320;2023-08-24T11:24:19;32.10;99.90
11320;DHT22;5715;48.234;14.320;2023-08-24T11:27:09;32.20;99.90
11320;DHT22;5715;48.234;14.320;2023-08-24T11:30:00;32.30;99.90
11320;DHT22;5715;48.234;14.320;2023-08-24T11:32:52;32.50;99.90
11320;DHT22;5715;48.234;14.320;2023-08-24T11:35:44;32.70;99.90
11320;DHT22;5715;48.234;14.320;2023-08-24T11:38:40;32.70;99.90
11320;DHT22;5715;48.234;14.320;2023-08-24T11:41:29;32.70;99.90
11320;DHT22;5715;48.234;14.320;2023-08-24T11:44:16;32.70;99.90
11320;DHT22;5715;48.234;14.320;2023-08-24T11:47:15;32.80;99.90
11320;DHT22;5715;48.234;14.320;2023-08-24T11:50:03;32.70;99.90
11320;DHT22;5715;48.234;14.320;2023-08-24T11:52:53;32.70;99.90
11320;DHT22;5715;48.234;14.320;2023-08-24T11:55:41;32.80;99.90
11320;DHT22;5715;48.234;14.320;2023-08-24T11:58:48;32.90;99.90
11320;DHT22;5715;48.234;14.320;2023-08-24T12:01:41;33.00;99.90
11320;DHT22;5715;48.234;14.320;2023-08-24T12:04:41;33.10;99.90
11320;DHT22;5715;48.234;14.320;2023-08-24T12:07:31;33.10;99.90
11320;DHT22;5715;48.234;14.320;2023-08-24T12:10:19;33.10;99.90
11320;DHT22;5715;48.234;14.320;2023-08-24T12:13:07;33.00;99.90
11320;DHT22;5715;48.234;14.320;2023-08-24T12:15:59;32.90;99.90
11320;DHT22;5715;48.234;14.320;2023-08-24T12:18:53;33.10;99.90
11320;DHT22;5715;48.234;14.320;2023-08-24T12:21:43;33.10;99.90
11320;DHT22;5715;48.234;14.320;2023-08-24T12:24:32;33.10;99.90
11320;DHT22;5715;48.234;14.320;2023-08-24T12:27:25;33.10;99.90
11320;DHT22;5715;48.234;14.320;2023-08-24T12:30:14;33.00;99.90
11320;DHT22;5715;48.234;14.320;2023-08-24T12:33:01;33.00;99.90
11320;DHT22;5715;48.234;14.320;2023-08-24T12:35:50;33.10;99.90
11320;DHT22;5715;48.234;14.320;2023-08-24T12:38:38;33.20;99.90
11320;DHT22;5715;48.234;14.320;2023-08-24T12:41:27;33.20;99.90
11320;DHT22;5715;48.234;14.320;2023-08-24T12:44:14;33.30;99.90
11320;DHT22;5715;48.234;14.320;2023-08-24T12:47:02;33.20;99.90
11320;DHT22;5715;48.234;14.320;2023-08-24T12:49:50;33.20;99.90
11320;DHT22;5715;48.234;14.320;2023-08-24T12:52:38;33.20;99.90
11320;DHT22;5715;48.234;14.320;2023-08-24T12:55:26;33.10;99.90
11320;DHT22;5715;48.234;14.320;2023-08-24T12:58:14;32.90;99.90
11320;DHT22;5715;48.234;14.320;2023-08-24T13:01:02;32.90;99.90
11320;DHT22;5715;48.234;14.320;2023-08-24T13:03:50;33.00;99.90
11320;DHT22;5715;48.234;14.320;2023-08-24T13:06:37;32.90;99.90
11320;DHT22;5715;48.234;14.320;2023-08-24T13:09:25;32.90;99.90
11320;DHT22;5715;48.234;14.320;2023-08-24T13:12:13;32.80;99.90
11320;DHT22;5715;48.234;14.320;2023-08-24T13:15:01;32.80;99.90
11320;DHT22;5715;48.234;14.320;2023-08-24T13:17:49;32.90;99.90
11320;DHT22;5715;48.234;14.320;2023-08-24T13:20:38;32.90;99.90
11320;DHT22;5715;48.234;14.320;2023-08-24T13:23:25;33.10;99.90
11320;DHT22;5715;48.234;14.320;2023-08-24T13:26:20;33.10;99.90
11320;DHT22;5715;48.234;14.320;2023-08-24T13:29:08;33.10;99.90
11320;DHT22;5715;48.234;14.320;2023-08-24T13:31:56;33.10;99.90
11320;DHT22;5715;48.234;14.320;2023-08-24T13:34:43;33.00;99.90
11320;DHT22;5715;48.234;14.320;2023-08-24T13:37:31;33.00;99.90
11320;DHT22;5715;48.234;14.320;2023-08-24T13:40:18;33.10;99.90
11320;DHT22;5715;48.234;14.320;2023-08-24T13:43:06;33.50;99.90
11320;DHT22;5715;48.234;14.320;2023-08-24T13:45:53;33.50;99.90
11320;DHT22;5715;48.234;14.320;2023-08-24T13:48:41;33.50;99.90
11320;DHT22;5715;48.234;14.320;2023-08-24T13:51:29;33.50;99.90
11320;DHT22;5715;48.234;14.320;2023-08-24T13:54:18;33.40;99.90
11320;DHT22;5715;48.234;14.320;2023-08-24T13:57:07;33.40;99.90
11320;DHT22;5715;48.234;14.320;2023-08-24T13:59:55;33.30;99.90
11320;DHT22;5715;48.234;14.320;2023-08-24T14:02:42;33.30;99.90
11320;DHT22;5715;48.234;14.320;2023-08-24T14:05:32;33.30;99.90
11320;DHT22;5715;48.234;14.320;2023-08-24T14:08:19;33.30;99.90
11320;DHT22;5715;48.234;14.320;2023-08-24T14:11:07;33.30;99.90
11320;DHT22;5715;48.234;14.320;2023-08-24T14:13:54;33.30;99.90
11320;DHT22;5715;48.234;14.320;2023-08-24T14:16:42;33.50;99.90
11320;DHT22;5715;48.234;14.320;2023-08-24T14:19:30;33.40;99.90
11320;DHT22;5715;48.234;14.320;2023-08-24T14:22:17;33.30;99.90
11320;DHT22;5715;48.234;14.320;2023-08-24T14:25:05;33.20;99.90
11320;DHT22;5715;48.234;14.320;2023-08-24T14:27:54;33.20;99.90
11320;DHT22;5715;48.234;14.320;2023-08-24T14:30:53;33.30;99.90
11320;DHT22;5715;48.234;14.320;2023-08-24T14:33:40;33.30;99.90
11320;DHT22;5715;48.234;14.320;2023-08-24T14:36:29;33.30;99.90
11320;DHT22;5715;48.234;14.320;2023-08-24T14:39:16;33.30;99.90
11320;DHT22;5715;48.234;14.320;2023-08-24T14:42:04;33.30;99.90
11320;DHT22;5715;48.234;14.320;2023-08-24T14:44:52;33.30;99.90
11320;DHT22;5715;48.234;14.320;2023-08-24T14:47:39;33.30;99.90
11320;DHT22;5715;48.234;14.320;2023-08-24T14:50:27;33.20;99.90
11320;DHT22;5715;48.234;14.320;2023-08-24T14:53:14;33.10;99.90
11320;DHT22;5715;48.234;14.320;2023-08-24T14:56:02;33.10;99.90
11320;DHT22;5715;48.234;14.320;2023-08-24T14:58:50;33.00;99.90
11320;DHT22;5715;48.234;14.320;2023-08-24T15:01:37;32.90;99.90
11320;DHT22;5715;48.234;14.320;2023-08-24T15:04:28;32.80;99.90
11320;DHT22;5715;48.234;14.320;2023-08-24T15:07:16;32.90;99.90
11320;DHT22;5715;48.234;14.320;2023-08-24T15:10:04;32.90;99.90
11320;DHT22;5715;48.234;14.320;2023-08-24T15:12:52;32.90;99.90
11320;DHT22;5715;48.234;14.320;2023-08-24T15:15:40;32.90;99.90
11320;DHT22;5715;48.234;14.320;2023-08-24T15:18:28;32.90;99.90
11320;DHT22;5715;48.234;14.320;2023-08-24T15:21:15;33.00;99.90
11320;DHT22;5715;48.234;14.320;2023-08-24T15:24:03;32.90;99.90
11320;DHT22;5715;48.234;14.320;2023-08-24T15:26:51;32.80;99.90
11320;DHT22;5715;48.234;14.320;2023-08-24T15:29:38;32.70;99.90
11320;DHT22;5715;48.234;14.320;2023-08-24T15:32:26;32.60;99.90
11320;DHT22;5715;48.234;14.320;2023-08-24T15:35:13;32.70;99.90
11320;DHT22;5715;48.234;14.320;2023-08-24T15:38:01;32.60;99.90
11320;DHT22;5715;48.234;14.320;2023-08-24T15:40:53;32.60;99.90
11320;DHT22;5715;48.234;14.320;2023-08-24T15:43:41;32.60;99.90
11320;DHT22;5715;48.234;14.320;2023-08-24T15:46:28;32.50;99.90
11320;DHT22;5715;48.234;14.320;2023-08-24T15:49:16;32.50;99.90
11320;DHT22;5715;48.234;14.320;2023-08-24T15:52:04;32.50;99.90
11320;DHT22;5715;48.234;14.320;2023-08-24T15:54:52;32.50;99.90
11320;DHT22;5715;48.234;14.320;2023-08-24T15:57:40;32.60;99.90
11320;DHT22;5715;48.234;14.320;2023-08-24T16:00:28;32.50;99.90
11320;DHT22;5715;48.234;14.320;2023-08-24T16:03:16;32.40;99.90
11320;DHT22;5715;48.234;14.320;2023-08-24T16:06:03;32.30;99.90
11320;DHT22;5715;48.234;14.320;2023-08-24T16:08:52;32.40;99.90
11320;DHT22;5715;48.234;14.320;2023-08-24T16:11:40;32.40;99.90
11320;DHT22;5715;48.234;14.320;2023-08-24T16:14:28;32.40;99.90
11320;DHT22;5715;48.234;14.320;2023-08-24T16:17:15;32.20;99.90
11320;DHT22;5715;48.234;14.320;2023-08-24T16:20:03;32.10;99.90
11320;DHT22;5715;48.234;14.320;2023-08-24T16:22:54;32.10;99.90
11320;DHT22;5715;48.234;14.320;2023-08-24T16:25:43;32.00;99.90
11320;DHT22;5715;48.234;14.320;2023-08-24T16:28:32;31.90;99.90
11320;DHT22;5715;48.234;14.320;2023-08-24T16:31:19;31.90;99.90
11320;DHT22;5715;48.234;14.320;2023-08-24T16:34:07;31.90;99.90
11320;DHT22;5715;48.234;14.320;2023-08-24T16:36:58;31.70;99.90
11320;DHT22;5715;48.234;14.320;2023-08-24T16:39:46;31.70;99.90
11320;DHT22;5715;48.234;14.320;2023-08-24T16:42:33;31.60;99.90
11320;DHT22;5715;48.234;14.320;2023-08-24T16:45:21;31.60;99.90
11320;DHT22;5715;48.234;14.320;2023-08-24T16:48:10;31.40;99.90
11320;DHT22;5715;48.234;14.320;2023-08-24T16:50:58;31.30;99.90
11320;DHT22;5715;48.234;14.320;2023-08-24T16:53:45;31.10;99.90
11320;DHT22;5715;48.234;14.320;2023-08-24T16:56:34;30.90;99.90
11320;DHT22;5715;48.234;14.320;2023-08-24T16:59:21;30.60;99.90
11320;DHT22;5715;48.234;14.320;2023-08-24T17:02:09;30.50;99.90
11320;DHT22;5715;48.234;14.320;2023-08-24T17:04:57;30.30;99.90
11320;DHT22;5715;48.234;14.320;2023-08-24T17:08:03;30.10;99.90
11320;DHT22;5715;48.234;14.320;2023-08-24T17:10:55;29.90;99.90
11320;DHT22;5715;48.234;14.320;2023-08-24T17:13:42;29.80;99.90
11320;DHT22;5715;48.234;14.320;2023-08-24T17:16:30;29.50;99.90
11320;DHT22;5715;48.234;14.320;2023-08-24T17:19:18;29.30;99.90
11320;DHT22;5715;48.234;14.320;2023-08-24T17:22:06;29.20;99.90
11320;DHT22;5715;48.234;14.320;2023-08-24T17:24:54;29.00;99.90
11320;DHT22;5715;48.234;14.320;2023-08-24T17:27:41;28.80;99.90
11320;DHT22;5715;48.234;14.320;2023-08-24T17:30:29;28.60;99.90
11320;DHT22;5715;48.234;14.320;2023-08-24T17:33:16;28.60;99.90
11320;DHT22;5715;48.234;14.320;2023-08-24T17:36:04;28.40;99.90
11320;DHT22;5715;48.234;14.320;2023-08-24T17:38:52;28.30;99.90
11320;DHT22;5715;48.234;14.320;2023-08-24T17:41:54;28.20;99.90
11320;DHT22;5715;48.234;14.320;2023-08-24T17:44:42;28.10;99.90
11320;DHT22;5715;48.234;14.320;2023-08-24T17:47:29;28.10;99.90
11320;DHT22;5715;48.234;14.320;2023-08-24T17:50:18;28.00;99.90
11320;DHT22;5715;48.234;14.320;2023-08-24T17:53:06;28.10;99.90
11320;DHT22;5715;48.234;14.320;2023-08-24T17:55:54;28.00;99.90
11320;DHT22;5715;48.234;14.320;2023-08-24T17:58:42;28.00;99.90